sensor_id;sensor_type;location;lat;lon;timestamp;temperature;humidity
53748;DHT22;39655;53.210;5.768;2023-06-22T00:02:06;17.30;90.10
53748;DHT22;39655;53.210;5.768;2023-06-22T00:04:52;17.30;90.00
53748;DHT22;39655;53.210;5.768;2023-06-22T00:14:11;17.20;90.30
53748;DHT22;39655;53.210;5.768;2023-06-22T00:17:27;17.20;90.30
53748;DHT22;39655;53.210;5.768;2023-06-22T00:20:26;17.10;90.30
53748;DHT22;39655;53.210;5.768;2023-06-22T00:23:41;17.10;90.20
53748;DHT22;39655;53.210;5.768;2023-06-22T00:30:27;17.10;89.70
53748;DHT22;39655;53.210;5.768;2023-06-22T00:33:14;17.10;89.10
53748;DHT22;39655;53.210;5.768;2023-06-22T00:35:47;17.10;88.50
53748;DHT22;39655;53.210;5.768;2023-06-22T00:42:11;17.00;88.40
53748;DHT22;39655;53.210;5.768;2023-06-22T00:44:46;16.80;88.40
53748;DHT22;39655;53.210;5.768;2023-06-22T06:06:04;17.40;91.60
53748;DHT22;39655;53.210;5.768;2023-06-22T06:12:14;17.80;91.50
53748;DHT22;39655;53.210;5.768;2023-06-22T06:14:54;18.00;91.60
53748;DHT22;39655;53.210;5.768;2023-06-22T06:18:16;18.10;91.40
53748;DHT22;39655;53.210;5.768;2023-06-22T06:20:53;18.30;90.80
53748;DHT22;39655;53.210;5.768;2023-06-22T06:26:12;18.60;90.40
53748;DHT22;39655;53.210;5.768;2023-06-22T06:28:54;18.60;89.90
53748;DHT22;39655;53.210;5.768;2023-06-22T06:31:42;18.70;89.70
53748;DHT22;39655;53.210;5.768;2023-06-22T06:34:45;18.80;89.70
53748;DHT22;39655;53.210;5.768;2023-06-22T06:38:10;18.90;89.50
53748;DHT22;39655;53.210;5.768;2023-06-22T06:44:42;19.10;88.90
53748;DHT22;39655;53.210;5.768;2023-06-22T06:47:43;19.10;88.80
53748;DHT22;39655;53.210;5.768;2023-06-22T06:50:15;19.20;88.60
53748;DHT22;39655;53.210;5.768;2023-06-22T06:52:44;19.30;88.50
53748;DHT22;39655;53.210;5.768;2023-06-22T06:55:15;19.50;88.30
53748;DHT22;39655;53.210;5.768;2023-06-22T06:57:44;19.60;87.90
53748;DHT22;39655;53.210;5.768;2023-06-22T07:00:14;19.70;87.00
53748;DHT22;39655;53.210;5.768;2023-06-22T07:02:42;19.80;86.60
53748;DHT22;39655;53.210;5.768;2023-06-22T07:05:15;19.90;86.60
53748;DHT22;39655;53.210;5.768;2023-06-22T07:07:41;20.10;86.40
53748;DHT22;39655;53.210;5.768;2023-06-22T07:10:12;20.10;86.10
53748;DHT22;39655;53.210;5.768;2023-06-22T07:12:41;20.20;85.80
53748;DHT22;39655;53.210;5.768;2023-06-22T07:15:09;20.30;85.50
53748;DHT22;39655;53.210;5.768;2023-06-22T07:17:41;20.50;85.20
53748;DHT22;39655;53.210;5.768;2023-06-22T07:20:10;20.60;84.70
53748;DHT22;39655;53.210;5.768;2023-06-22T07:22:43;20.70;84.10
53748;DHT22;39655;53.210;5.768;2023-06-22T07:25:12;20.70;82.00
53748;DHT22;39655;53.210;5.768;2023-06-22T07:28:08;20.70;82.30
53748;DHT22;39655;53.210;5.768;2023-06-22T07:30:34;20.70;82.20
53748;DHT22;39655;53.210;5.768;2023-06-22T07:33:01;20.80;81.90
53748;DHT22;39655;53.210;5.768;2023-06-22T07:35:32;20.80;81.20
53748;DHT22;39655;53.210;5.768;2023-06-22T07:37:57;20.90;81.30
53748;DHT22;39655;53.210;5.768;2023-06-22T07:40:26;21.00;81.50
53748;DHT22;39655;53.210;5.768;2023-06-22T07:42:52;21.20;81.00
53748;DHT22;39655;53.210;5.768;2023-06-22T07:45:18;21.30;80.70
53748;DHT22;39655;53.210;5.768;2023-06-22T07:48:04;21.30;80.90
53748;DHT22;39655;53.210;5.768;2023-06-22T07:50:35;21.50;80.50
53748;DHT22;39655;53.210;5.768;2023-06-22T07:53:08;21.60;80.60
53748;DHT22;39655;53.210;5.768;2023-06-22T07:55:42;21.70;80.40
53748;DHT22;39655;53.210;5.768;2023-06-22T07:58:47;21.80;79.80
53748;DHT22;39655;53.210;5.768;2023-06-22T08:01:14;21.90;79.70
53748;DHT22;39655;53.210;5.768;2023-06-22T08:04:01;22.00;79.80
53748;DHT22;39655;53.210;5.768;2023-06-22T08:06:33;22.10;80.00
53748;DHT22;39655;53.210;5.768;2023-06-22T08:09:02;22.20;79.30
53748;DHT22;39655;53.210;5.768;2023-06-22T08:11:27;22.30;79.30
53748;DHT22;39655;53.210;5.768;2023-06-22T08:13:56;22.40;78.60
53748;DHT22;39655;53.210;5.768;2023-06-22T08:16:23;22.50;78.70
53748;DHT22;39655;53.210;5.768;2023-06-22T08:18:49;22.60;78.30
53748;DHT22;39655;53.210;5.768;2023-06-22T08:21:15;22.80;77.60
53748;DHT22;39655;53.210;5.768;2023-06-22T08:23:41;22.90;77.60
53748;DHT22;39655;53.210;5.768;2023-06-22T08:26:09;23.10;77.50
53748;DHT22;39655;53.210;5.768;2023-06-22T08:28:35;23.10;77.20
53748;DHT22;39655;53.210;5.768;2023-06-22T08:31:02;23.10;76.10
53748;DHT22;39655;53.210;5.768;2023-06-22T08:33:28;23.20;75.10
53748;DHT22;39655;53.210;5.768;2023-06-22T08:35:56;23.20;75.60
53748;DHT22;39655;53.210;5.768;2023-06-22T08:38:22;23.30;75.50
53748;DHT22;39655;53.210;5.768;2023-06-22T08:40:48;23.50;74.80
53748;DHT22;39655;53.210;5.768;2023-06-22T08:43:14;23.70;73.90
53748;DHT22;39655;53.210;5.768;2023-06-22T08:45:43;23.70;72.50
53748;DHT22;39655;53.210;5.768;2023-06-22T08:48:12;23.80;73.10
53748;DHT22;39655;53.210;5.768;2023-06-22T08:50:37;23.90;73.10
53748;DHT22;39655;53.210;5.768;2023-06-22T08:53:06;24.10;73.00
53748;DHT22;39655;53.210;5.768;2023-06-22T08:55:31;24.10;73.30
53748;DHT22;39655;53.210;5.768;2023-06-22T08:57:57;24.30;71.70
53748;DHT22;39655;53.210;5.768;2023-06-22T09:00:23;24.30;71.50
53748;DHT22;39655;53.210;5.768;2023-06-22T09:02:49;24.40;71.50
53748;DHT22;39655;53.210;5.768;2023-06-22T09:05:15;24.40;70.10
53748;DHT22;39655;53.210;5.768;2023-06-22T09:07:41;24.50;70.10
53748;DHT22;39655;53.210;5.768;2023-06-22T09:10:07;24.60;70.40
53748;DHT22;39655;53.210;5.768;2023-06-22T09:12:33;24.60;70.20
53748;DHT22;39655;53.210;5.768;2023-06-22T09:15:00;24.60;68.80
53748;DHT22;39655;53.210;5.768;2023-06-22T09:17:26;24.60;67.50
53748;DHT22;39655;53.210;5.768;2023-06-22T09:19:52;24.50;65.30
53748;DHT22;39655;53.210;5.768;2023-06-22T09:22:18;24.60;66.70
53748;DHT22;39655;53.210;5.768;2023-06-22T09:24:44;24.70;68.10
53748;DHT22;39655;53.210;5.768;2023-06-22T09:27:09;24.80;64.30
53748;DHT22;39655;53.210;5.768;2023-06-22T09:29:35;24.90;65.30
53748;DHT22;39655;53.210;5.768;2023-06-22T09:32:01;25.00;65.40
53748;DHT22;39655;53.210;5.768;2023-06-22T09:34:27;25.10;63.50
53748;DHT22;39655;53.210;5.768;2023-06-22T09:36:52;25.30;64.00
53748;DHT22;39655;53.210;5.768;2023-06-22T09:39:18;25.50;62.70
53748;DHT22;39655;53.210;5.768;2023-06-22T09:41:44;25.50;63.40
53748;DHT22;39655;53.210;5.768;2023-06-22T09:44:10;25.60;64.00
53748;DHT22;39655;53.210;5.768;2023-06-22T09:46:35;25.80;62.50
53748;DHT22;39655;53.210;5.768;2023-06-22T09:49:01;25.80;62.10
53748;DHT22;39655;53.210;5.768;2023-06-22T09:51:27;25.80;61.60
53748;DHT22;39655;53.210;5.768;2023-06-22T09:53:53;25.80;61.90
53748;DHT22;39655;53.210;5.768;2023-06-22T09:56:21;25.90;61.80
53748;DHT22;39655;53.210;5.768;2023-06-22T09:58:48;25.80;60.90
53748;DHT22;39655;53.210;5.768;2023-06-22T10:01:15;25.80;62.10
53748;DHT22;39655;53.210;5.768;2023-06-22T10:03:41;25.90;60.90
53748;DHT22;39655;53.210;5.768;2023-06-22T10:06:07;26.10;60.20
53748;DHT22;39655;53.210;5.768;2023-06-22T10:08:34;26.20;60.70
53748;DHT22;39655;53.210;5.768;2023-06-22T10:11:00;26.40;60.40
53748;DHT22;39655;53.210;5.768;2023-06-22T10:13:29;26.30;59.30
53748;DHT22;39655;53.210;5.768;2023-06-22T10:15:54;26.40;60.60
53748;DHT22;39655;53.210;5.768;2023-06-22T10:18:20;26.50;58.80
53748;DHT22;39655;53.210;5.768;2023-06-22T10:20:49;26.50;59.30
53748;DHT22;39655;53.210;5.768;2023-06-22T10:23:18;26.20;56.40
53748;DHT22;39655;53.210;5.768;2023-06-22T10:25:44;26.10;57.50
53748;DHT22;39655;53.210;5.768;2023-06-22T10:28:10;26.00;58.20
53748;DHT22;39655;53.210;5.768;2023-06-22T10:30:35;26.00;56.90
53748;DHT22;39655;53.210;5.768;2023-06-22T10:33:01;26.10;55.10
53748;DHT22;39655;53.210;5.768;2023-06-22T10:35:26;26.00;55.70
53748;DHT22;39655;53.210;5.768;2023-06-22T10:37:52;26.10;56.30
53748;DHT22;39655;53.210;5.768;2023-06-22T10:40:20;26.30;55.60
53748;DHT22;39655;53.210;5.768;2023-06-22T10:42:45;26.50;55.90
53748;DHT22;39655;53.210;5.768;2023-06-22T10:45:11;26.60;57.00
53748;DHT22;39655;53.210;5.768;2023-06-22T10:47:37;26.80;57.10
53748;DHT22;39655;53.210;5.768;2023-06-22T10:50:03;27.00;55.50
53748;DHT22;39655;53.210;5.768;2023-06-22T10:52:29;27.10;55.80
53748;DHT22;39655;53.210;5.768;2023-06-22T10:54:55;27.10;55.40
53748;DHT22;39655;53.210;5.768;2023-06-22T10:57:21;27.10;55.90
53748;DHT22;39655;53.210;5.768;2023-06-22T10:59:47;27.10;55.30
53748;DHT22;39655;53.210;5.768;2023-06-22T11:02:13;27.10;54.60
53748;DHT22;39655;53.210;5.768;2023-06-22T11:04:39;27.10;55.20
53748;DHT22;39655;53.210;5.768;2023-06-22T11:07:05;27.10;54.90
53748;DHT22;39655;53.210;5.768;2023-06-22T11:09:31;27.10;55.10
53748;DHT22;39655;53.210;5.768;2023-06-22T11:11:57;27.30;54.70
53748;DHT22;39655;53.210;5.768;2023-06-22T11:14:24;27.50;55.10
53748;DHT22;39655;53.210;5.768;2023-06-22T11:16:50;27.70;53.50
53748;DHT22;39655;53.210;5.768;2023-06-22T11:19:16;27.70;54.20
53748;DHT22;39655;53.210;5.768;2023-06-22T11:21:41;27.80;54.10
53748;DHT22;39655;53.210;5.768;2023-06-22T11:24:07;27.90;53.30
53748;DHT22;39655;53.210;5.768;2023-06-22T11:26:33;27.80;53.20
53748;DHT22;39655;53.210;5.768;2023-06-22T11:28:59;27.60;53.90
53748;DHT22;39655;53.210;5.768;2023-06-22T11:31:25;27.60;54.30
53748;DHT22;39655;53.210;5.768;2023-06-22T11:33:50;27.70;53.60
53748;DHT22;39655;53.210;5.768;2023-06-22T11:36:16;27.70;54.10
53748;DHT22;39655;53.210;5.768;2023-06-22T11:38:43;27.90;54.30
53748;DHT22;39655;53.210;5.768;2023-06-22T11:41:09;28.10;54.00
53748;DHT22;39655;53.210;5.768;2023-06-22T11:43:35;28.40;52.60
53748;DHT22;39655;53.210;5.768;2023-06-22T11:46:02;28.70;52.30
53748;DHT22;39655;53.210;5.768;2023-06-22T11:48:28;29.20;51.90
53748;DHT22;39655;53.210;5.768;2023-06-22T11:50:54;29.70;48.90
53748;DHT22;39655;53.210;5.768;2023-06-22T11:53:21;29.70;47.40
53748;DHT22;39655;53.210;5.768;2023-06-22T11:55:47;29.60;48.20
53748;DHT22;39655;53.210;5.768;2023-06-22T11:58:14;29.80;46.20
53748;DHT22;39655;53.210;5.768;2023-06-22T12:00:40;29.90;47.20
53748;DHT22;39655;53.210;5.768;2023-06-22T12:03:05;30.30;46.50
53748;DHT22;39655;53.210;5.768;2023-06-22T12:05:31;30.60;45.10
53748;DHT22;39655;53.210;5.768;2023-06-22T12:07:57;30.80;44.50
53748;DHT22;39655;53.210;5.768;2023-06-22T12:10:24;30.90;43.00
53748;DHT22;39655;53.210;5.768;2023-06-22T12:12:50;30.70;43.80
53748;DHT22;39655;53.210;5.768;2023-06-22T12:15:16;30.50;44.90
53748;DHT22;39655;53.210;5.768;2023-06-22T12:17:42;30.50;44.10
53748;DHT22;39655;53.210;5.768;2023-06-22T12:20:08;30.50;44.00
53748;DHT22;39655;53.210;5.768;2023-06-22T12:22:34;30.60;44.80
53748;DHT22;39655;53.210;5.768;2023-06-22T12:25:00;30.70;43.40
53748;DHT22;39655;53.210;5.768;2023-06-22T12:27:27;30.80;43.20
53748;DHT22;39655;53.210;5.768;2023-06-22T12:29:52;30.50;42.90
53748;DHT22;39655;53.210;5.768;2023-06-22T12:32:21;30.30;43.00
53748;DHT22;39655;53.210;5.768;2023-06-22T12:34:47;30.10;43.50
53748;DHT22;39655;53.210;5.768;2023-06-22T12:37:12;30.10;43.20
53748;DHT22;39655;53.210;5.768;2023-06-22T12:39:40;29.90;43.50
53748;DHT22;39655;53.210;5.768;2023-06-22T12:42:06;29.60;43.10
53748;DHT22;39655;53.210;5.768;2023-06-22T12:44:37;29.20;43.60
53748;DHT22;39655;53.210;5.768;2023-06-22T12:47:03;29.10;44.70
53748;DHT22;39655;53.210;5.768;2023-06-22T12:49:29;29.10;44.00
53748;DHT22;39655;53.210;5.768;2023-06-22T12:51:55;29.00;44.60
53748;DHT22;39655;53.210;5.768;2023-06-22T12:54:20;28.80;44.40
53748;DHT22;39655;53.210;5.768;2023-06-22T12:56:46;28.70;45.40
53748;DHT22;39655;53.210;5.768;2023-06-22T12:59:12;28.60;44.90
53748;DHT22;39655;53.210;5.768;2023-06-22T13:01:38;28.60;45.20
53748;DHT22;39655;53.210;5.768;2023-06-22T13:04:04;28.50;45.30
53748;DHT22;39655;53.210;5.768;2023-06-22T13:06:30;28.10;45.10
53748;DHT22;39655;53.210;5.768;2023-06-22T13:08:56;27.70;45.70
53748;DHT22;39655;53.210;5.768;2023-06-22T13:11:22;27.40;46.30
53748;DHT22;39655;53.210;5.768;2023-06-22T13:13:47;27.10;47.20
53748;DHT22;39655;53.210;5.768;2023-06-22T13:16:13;26.90;47.90
53748;DHT22;39655;53.210;5.768;2023-06-22T13:18:38;26.90;48.50
53748;DHT22;39655;53.210;5.768;2023-06-22T13:21:05;26.90;48.00
53748;DHT22;39655;53.210;5.768;2023-06-22T13:23:30;26.90;47.70
53748;DHT22;39655;53.210;5.768;2023-06-22T13:25:57;26.80;48.30
53748;DHT22;39655;53.210;5.768;2023-06-22T13:28:23;26.80;47.20
53748;DHT22;39655;53.210;5.768;2023-06-22T13:30:49;26.70;47.40
53748;DHT22;39655;53.210;5.768;2023-06-22T13:33:15;26.60;47.00
53748;DHT22;39655;53.210;5.768;2023-06-22T13:35:41;26.50;47.40
53748;DHT22;39655;53.210;5.768;2023-06-22T13:38:10;26.50;47.20
53748;DHT22;39655;53.210;5.768;2023-06-22T13:40:37;26.30;46.70
53748;DHT22;39655;53.210;5.768;2023-06-22T13:43:05;26.20;47.10
53748;DHT22;39655;53.210;5.768;2023-06-22T13:45:32;26.10;47.80
53748;DHT22;39655;53.210;5.768;2023-06-22T13:48:00;26.10;47.80
53748;DHT22;39655;53.210;5.768;2023-06-22T13:50:26;26.00;48.30
53748;DHT22;39655;53.210;5.768;2023-06-22T13:52:52;26.10;47.60
53748;DHT22;39655;53.210;5.768;2023-06-22T13:55:17;26.00;48.20
53748;DHT22;39655;53.210;5.768;2023-06-22T13:57:45;26.00;48.20
53748;DHT22;39655;53.210;5.768;2023-06-22T14:00:11;26.00;48.00
53748;DHT22;39655;53.210;5.768;2023-06-22T14:02:40;25.90;48.70
53748;DHT22;39655;53.210;5.768;2023-06-22T14:05:07;25.90;49.00
53748;DHT22;39655;53.210;5.768;2023-06-22T14:07:33;25.90;48.80
53748;DHT22;39655;53.210;5.768;2023-06-22T14:10:00;25.60;48.80
53748;DHT22;39655;53.210;5.768;2023-06-22T14:12:26;25.50;49.10
53748;DHT22;39655;53.210;5.768;2023-06-22T14:14:52;25.40;48.70
53748;DHT22;39655;53.210;5.768;2023-06-22T14:17:17;25.20;49.20
53748;DHT22;39655;53.210;5.768;2023-06-22T14:19:49;25.10;49.60
53748;DHT22;39655;53.210;5.768;2023-06-22T14:22:15;24.90;50.90
53748;DHT22;39655;53.210;5.768;2023-06-22T14:24:40;24.80;51.30
53748;DHT22;39655;53.210;5.768;2023-06-22T14:27:06;24.60;51.90
53748;DHT22;39655;53.210;5.768;2023-06-22T14:29:34;24.60;51.40
53748;DHT22;39655;53.210;5.768;2023-06-22T14:32:00;24.50;52.10
53748;DHT22;39655;53.210;5.768;2023-06-22T14:34:25;24.50;51.80
53748;DHT22;39655;53.210;5.768;2023-06-22T14:36:51;24.40;52.30
53748;DHT22;39655;53.210;5.768;2023-06-22T14:39:17;24.30;52.10
53748;DHT22;39655;53.210;5.768;2023-06-22T14:41:42;24.10;52.70
53748;DHT22;39655;53.210;5.768;2023-06-22T14:44:08;24.00;53.20
53748;DHT22;39655;53.210;5.768;2023-06-22T14:46:34;23.90;53.50
53748;DHT22;39655;53.210;5.768;2023-06-22T14:49:00;23.80;53.90
53748;DHT22;39655;53.210;5.768;2023-06-22T14:51:26;23.80;53.70
53748;DHT22;39655;53.210;5.768;2023-06-22T14:53:52;23.80;53.40
53748;DHT22;39655;53.210;5.768;2023-06-22T14:56:18;23.70;53.20
53748;DHT22;39655;53.210;5.768;2023-06-22T14:58:44;23.70;52.40
53748;DHT22;39655;53.210;5.768;2023-06-22T15:01:13;23.50;53.40
53748;DHT22;39655;53.210;5.768;2023-06-22T15:03:39;23.60;53.40
53748;DHT22;39655;53.210;5.768;2023-06-22T15:06:05;23.70;53.70
53748;DHT22;39655;53.210;5.768;2023-06-22T15:08:31;23.60;54.10
53748;DHT22;39655;53.210;5.768;2023-06-22T15:11:00;23.60;54.00
53748;DHT22;39655;53.210;5.768;2023-06-22T15:13:27;23.60;54.20
53748;DHT22;39655;53.210;5.768;2023-06-22T15:15:53;23.70;54.20
53748;DHT22;39655;53.210;5.768;2023-06-22T15:18:18;23.80;53.60
53748;DHT22;39655;53.210;5.768;2023-06-22T15:20:44;23.80;53.40
53748;DHT22;39655;53.210;5.768;2023-06-22T15:23:11;23.80;53.00
53748;DHT22;39655;53.210;5.768;2023-06-22T15:25:37;23.70;52.20
53748;DHT22;39655;53.210;5.768;2023-06-22T15:28:03;23.70;52.80
53748;DHT22;39655;53.210;5.768;2023-06-22T15:30:29;23.70;52.90
53748;DHT22;39655;53.210;5.768;2023-06-22T15:32:57;23.70;52.90
53748;DHT22;39655;53.210;5.768;2023-06-22T15:35:22;23.60;53.40
53748;DHT22;39655;53.210;5.768;2023-06-22T15:37:48;23.60;53.90
53748;DHT22;39655;53.210;5.768;2023-06-22T15:40:14;23.60;54.20
53748;DHT22;39655;53.210;5.768;2023-06-22T15:42:40;23.50;54.20
53748;DHT22;39655;53.210;5.768;2023-06-22T15:45:06;23.50;54.30
53748;DHT22;39655;53.210;5.768;2023-06-22T15:47:32;23.30;55.10
53748;DHT22;39655;53.210;5.768;2023-06-22T15:49:57;23.30;55.60
53748;DHT22;39655;53.210;5.768;2023-06-22T15:52:23;23.20;54.60
53748;DHT22;39655;53.210;5.768;2023-06-22T15:54:52;23.10;54.80
53748;DHT22;39655;53.210;5.768;2023-06-22T15:57:20;23.00;55.30
53748;DHT22;39655;53.210;5.768;2023-06-22T15:59:45;23.00;55.80
53748;DHT22;39655;53.210;5.768;2023-06-22T16:02:11;22.80;56.20
53748;DHT22;39655;53.210;5.768;2023-06-22T16:04:37;22.60;57.60
53748;DHT22;39655;53.210;5.768;2023-06-22T16:07:03;22.60;58.80
53748;DHT22;39655;53.210;5.768;2023-06-22T16:09:29;22.50;60.10
53748;DHT22;39655;53.210;5.768;2023-06-22T16:11:56;22.40;60.40
53748;DHT22;39655;53.210;5.768;2023-06-22T16:14:22;22.30;60.80
53748;DHT22;39655;53.210;5.768;2023-06-22T16:16:48;22.20;61.10
53748;DHT22;39655;53.210;5.768;2023-06-22T16:19:14;22.10;62.30
53748;DHT22;39655;53.210;5.768;2023-06-22T16:21:41;22.10;61.90
53748;DHT22;39655;53.210;5.768;2023-06-22T16:24:07;22.10;62.20
53748;DHT22;39655;53.210;5.768;2023-06-22T16:26:41;22.10;61.90
53748;DHT22;39655;53.210;5.768;2023-06-22T16:29:07;21.90;62.90
53748;DHT22;39655;53.210;5.768;2023-06-22T16:31:33;21.90;63.00
53748;DHT22;39655;53.210;5.768;2023-06-22T16:33:59;21.80;63.40
53748;DHT22;39655;53.210;5.768;2023-06-22T16:36:25;21.70;64.30
53748;DHT22;39655;53.210;5.768;2023-06-22T16:38:50;21.60;64.30
53748;DHT22;39655;53.210;5.768;2023-06-22T16:41:16;21.50;65.00
53748;DHT22;39655;53.210;5.768;2023-06-22T16:43:42;21.50;65.60
53748;DHT22;39655;53.210;5.768;2023-06-22T16:46:08;21.40;65.70
53748;DHT22;39655;53.210;5.768;2023-06-22T16:48:36;21.30;66.10
53748;DHT22;39655;53.210;5.768;2023-06-22T16:51:02;21.30;66.30
53748;DHT22;39655;53.210;5.768;2023-06-22T16:53:28;21.20;66.20
53748;DHT22;39655;53.210;5.768;2023-06-22T16:55:54;21.20;66.90
53748;DHT22;39655;53.210;5.768;2023-06-22T16:58:20;21.10;67.00
53748;DHT22;39655;53.210;5.768;2023-06-22T17:00:51;21.10;67.70
53748;DHT22;39655;53.210;5.768;2023-06-22T17:05:49;20.90;68.80
53748;DHT22;39655;53.210;5.768;2023-06-22T17:08:15;20.90;68.70
53748;DHT22;39655;53.210;5.768;2023-06-22T17:10:42;20.80;69.10
53748;DHT22;39655;53.210;5.768;2023-06-22T17:13:08;20.90;69.80
53748;DHT22;39655;53.210;5.768;2023-06-22T17:15:34;20.80;70.50
53748;DHT22;39655;53.210;5.768;2023-06-22T17:18:04;20.80;70.70
53748;DHT22;39655;53.210;5.768;2023-06-22T17:20:31;20.70;70.70
53748;DHT22;39655;53.210;5.768;2023-06-22T17:22:57;20.60;71.90
53748;DHT22;39655;53.210;5.768;2023-06-22T17:25:29;20.60;71.20
53748;DHT22;39655;53.210;5.768;2023-06-22T17:28:03;20.60;71.60
53748;DHT22;39655;53.210;5.768;2023-06-22T17:30:29;20.50;71.90
53748;DHT22;39655;53.210;5.768;2023-06-22T17:32:55;20.40;71.80
53748;DHT22;39655;53.210;5.768;2023-06-22T17:35:21;20.50;71.50
53748;DHT22;39655;53.210;5.768;2023-06-22T17:37:54;20.50;71.90
53748;DHT22;39655;53.210;5.768;2023-06-22T17:40:24;20.30;72.10
53748;DHT22;39655;53.210;5.768;2023-06-22T17:42:51;20.30;72.00
53748;DHT22;39655;53.210;5.768;2023-06-22T17:45:28;20.30;72.20
53748;DHT22;39655;53.210;5.768;2023-06-22T17:47:53;20.30;72.40
53748;DHT22;39655;53.210;5.768;2023-06-22T17:50:23;20.30;72.30
53748;DHT22;39655;53.210;5.768;2023-06-22T17:52:54;20.20;72.70
53748;DHT22;39655;53.210;5.768;2023-06-22T17:55:25;20.10;72.70
53748;DHT22;39655;53.210;5.768;2023-06-22T17:57:55;20.10;73.10
53748;DHT22;39655;53.210;5.768;2023-06-22T18:00:25;20.10;73.40
53748;DHT22;39655;53.210;5.768;2023-06-22T18:02:51;19.90;73.90
53748;DHT22;39655;53.210;5.768;2023-06-22T18:05:19;19.90;73.90
53748;DHT22;39655;53.210;5.768;2023-06-22T18:07:53;19.90;74.00
53748;DHT22;39655;53.210;5.768;2023-06-22T18:10:19;20.00;74.20
53748;DHT22;39655;53.210;5.768;2023-06-22T18:12:46;19.90;74.00
53748;DHT22;39655;53.210;5.768;2023-06-22T18:15:13;19.90;73.90
53748;DHT22;39655;53.210;5.768;2023-06-22T18:17:41;19.90;74.40
53748;DHT22;39655;53.210;5.768;2023-06-22T18:20:07;20.00;74.30
53748;DHT22;39655;53.210;5.768;2023-06-22T18:22:36;19.90;74.90
53748;DHT22;39655;53.210;5.768;2023-06-22T18:25:02;19.90;75.40
53748;DHT22;39655;53.210;5.768;2023-06-22T18:27:28;19.80;75.70
53748;DHT22;39655;53.210;5.768;2023-06-22T18:29:55;19.70;76.20
53748;DHT22;39655;53.210;5.768;2023-06-22T18:32:21;19.70;76.50
53748;DHT22;39655;53.210;5.768;2023-06-22T18:34:53;19.70;76.60
53748;DHT22;39655;53.210;5.768;2023-06-22T18:37:24;19.60;77.20
53748;DHT22;39655;53.210;5.768;2023-06-22T18:39:53;19.60;77.30
53748;DHT22;39655;53.210;5.768;2023-06-22T18:42:20;19.60;77.70
53748;DHT22;39655;53.210;5.768;2023-06-22T18:44:52;19.60;77.30
53748;DHT22;39655;53.210;5.768;2023-06-22T18:47:30;19.70;77.00
53748;DHT22;39655;53.210;5.768;2023-06-22T18:50:07;19.60;76.70
53748;DHT22;39655;53.210;5.768;2023-06-22T18:52:34;19.60;76.80
53748;DHT22;39655;53.210;5.768;2023-06-22T18:55:03;19.60;76.50
53748;DHT22;39655;53.210;5.768;2023-06-22T18:57:31;19.60;76.60
53748;DHT22;39655;53.210;5.768;2023-06-22T19:00:08;19.60;76.70
53748;DHT22;39655;53.210;5.768;2023-06-22T19:10:44;19.40;77.70
53748;DHT22;39655;53.210;5.768;2023-06-22T19:16:01;19.40;77.00
53748;DHT22;39655;53.210;5.768;2023-06-22T19:18:39;19.40;76.90
53748;DHT22;39655;53.210;5.768;2023-06-22T19:21:10;19.40;77.40
53748;DHT22;39655;53.210;5.768;2023-06-22T19:23:36;19.30;77.10
53748;DHT22;39655;53.210;5.768;2023-06-22T19:26:13;19.30;77.40
53748;DHT22;39655;53.210;5.768;2023-06-22T19:28:55;19.40;77.20
53748;DHT22;39655;53.210;5.768;2023-06-22T19:31:25;19.30;77.20
53748;DHT22;39655;53.210;5.768;2023-06-22T19:34:03;19.30;77.10
53748;DHT22;39655;53.210;5.768;2023-06-22T19:36:36;19.20;77.10
53748;DHT22;39655;53.210;5.768;2023-06-22T19:39:03;19.10;77.00
53748;DHT22;39655;53.210;5.768;2023-06-22T19:41:29;19.20;77.30
53748;DHT22;39655;53.210;5.768;2023-06-22T19:43:57;19.20;77.10
53748;DHT22;39655;53.210;5.768;2023-06-22T19:46:32;19.20;77.30
53748;DHT22;39655;53.210;5.768;2023-06-22T19:48:59;19.10;77.40
53748;DHT22;39655;53.210;5.768;2023-06-22T19:51:36;19.10;77.30
53748;DHT22;39655;53.210;5.768;2023-06-22T19:54:06;19.10;77.30
53748;DHT22;39655;53.210;5.768;2023-06-22T19:56:32;19.10;77.00
53748;DHT22;39655;53.210;5.768;2023-06-22T19:59:09;19.10;77.30
53748;DHT22;39655;53.210;5.768;2023-06-22T20:01:42;19.10;77.90
53748;DHT22;39655;53.210;5.768;2023-06-22T20:04:24;19.10;78.30
53748;DHT22;39655;53.210;5.768;2023-06-22T20:07:06;19.00;78.50
53748;DHT22;39655;53.210;5.768;2023-06-22T20:09:32;19.10;79.00
53748;DHT22;39655;53.210;5.768;2023-06-22T20:12:26;19.10;78.90
53748;DHT22;39655;53.210;5.768;2023-06-22T20:14:54;19.00;78.90
53748;DHT22;39655;53.210;5.768;2023-06-22T20:17:29;19.00;79.20
53748;DHT22;39655;53.210;5.768;2023-06-22T20:19:58;18.90;79.40
53748;DHT22;39655;53.210;5.768;2023-06-22T20:22:24;18.90;79.40
53748;DHT22;39655;53.210;5.768;2023-06-22T20:24:49;18.90;79.60
53748;DHT22;39655;53.210;5.768;2023-06-22T20:27:18;18.90;79.60
53748;DHT22;39655;53.210;5.768;2023-06-22T20:29:43;18.90;79.50
53748;DHT22;39655;53.210;5.768;2023-06-22T20:32:13;18.90;79.80
53748;DHT22;39655;53.210;5.768;2023-06-22T20:34:43;18.90;80.00
53748;DHT22;39655;53.210;5.768;2023-06-22T20:37:17;18.90;79.30
53748;DHT22;39655;53.210;5.768;2023-06-22T20:39:53;18.80;79.40
53748;DHT22;39655;53.210;5.768;2023-06-22T20:42:21;18.80;79.10
53748;DHT22;39655;53.210;5.768;2023-06-22T20:44:55;18.80;78.80
53748;DHT22;39655;53.210;5.768;2023-06-22T20:47:37;18.80;78.10
53748;DHT22;39655;53.210;5.768;2023-06-22T20:50:06;18.80;78.00
53748;DHT22;39655;53.210;5.768;2023-06-22T20:52:38;18.90;77.90
53748;DHT22;39655;53.210;5.768;2023-06-22T20:55:06;18.80;78.00
53748;DHT22;39655;53.210;5.768;2023-06-22T20:57:34;18.80;77.80
53748;DHT22;39655;53.210;5.768;2023-06-22T21:00:03;18.80;77.60
53748;DHT22;39655;53.210;5.768;2023-06-22T21:02:35;18.80;77.50
53748;DHT22;39655;53.210;5.768;2023-06-22T21:05:02;18.80;77.60
53748;DHT22;39655;53.210;5.768;2023-06-22T21:07:28;18.80;77.90
53748;DHT22;39655;53.210;5.768;2023-06-22T21:09:54;18.80;78.10
53748;DHT22;39655;53.210;5.768;2023-06-22T21:12:19;18.90;78.00
53748;DHT22;39655;53.210;5.768;2023-06-22T21:14:48;18.80;78.00
53748;DHT22;39655;53.210;5.768;2023-06-22T21:17:23;18.80;78.10
53748;DHT22;39655;53.210;5.768;2023-06-22T21:22:29;18.70;78.30
53748;DHT22;39655;53.210;5.768;2023-06-22T21:25:29;18.70;78.40
53748;DHT22;39655;53.210;5.768;2023-06-22T21:27:55;18.70;78.50
53748;DHT22;39655;53.210;5.768;2023-06-22T21:30:21;18.70;78.70
53748;DHT22;39655;53.210;5.768;2023-06-22T21:32:46;18.70;78.70
53748;DHT22;39655;53.210;5.768;2023-06-22T21:35:12;18.70;78.70
53748;DHT22;39655;53.210;5.768;2023-06-22T21:37:41;18.70;79.00
53748;DHT22;39655;53.210;5.768;2023-06-22T21:40:07;18.70;78.80
53748;DHT22;39655;53.210;5.768;2023-06-22T21:42:33;18.70;79.10